createdAt,value
2018-04-08T00:02:45.141Z,2.80
2018-04-08T00:12:50.029Z,2.57
2018-04-08T00:22:54.889Z,2.60
2018-04-08T00:32:58.085Z,2.80
2018-04-08T00:43:01.267Z,2.90
2018-04-08T00:53:04.446Z,2.97
2018-04-08T01:03:07.626Z,2.77
2018-04-08T01:13:10.824Z,3.20
2018-04-08T01:23:14.770Z,2.80
2018-04-08T01:33:18.733Z,2.70
2018-04-08T01:43:22.673Z,2.90
2018-04-08T01:53:25.857Z,2.70
2018-04-08T02:03:29.034Z,2.87
2018-04-08T02:13:33.170Z,2.90
2018-04-08T02:23:36.366Z,2.97
2018-04-08T02:33:39.547Z,3.30
2018-04-08T02:43:42.728Z,3.17
2018-04-08T02:53:45.904Z,2.70
2018-04-08T03:03:49.083Z,2.70
2018-04-08T03:13:52.284Z,3.23
2018-04-08T03:23:55.460Z,3.03
2018-04-08T03:33:58.662Z,3.30
2018-04-08T03:44:01.871Z,2.80
2018-04-08T03:54:05.149Z,3.30
2018-04-08T04:04:08.313Z,3.37
2018-04-08T04:14:12.250Z,3.23
2018-04-08T04:24:33.270Z,3.27
2018-04-08T04:34:37.421Z,3.20
2018-04-08T04:44:40.613Z,3.27
2018-04-08T04:54:43.802Z,3.40
2018-04-08T05:04:46.980Z,3.20
2018-04-08T05:14:50.248Z,3.30
2018-04-08T05:24:53.792Z,3.40
2018-04-08T05:34:57.047Z,3.60
2018-04-08T05:45:00.217Z,3.27
2018-04-08T05:55:04.194Z,3.47
2018-04-08T06:05:07.377Z,3.90
2018-04-08T06:15:10.645Z,4.20
2018-04-08T06:25:13.887Z,4.20
2018-04-08T06:35:17.072Z,4.20
2018-04-08T06:45:20.266Z,10.10
2018-04-08T06:55:24.017Z,6.70
2018-04-08T07:05:27.193Z,6.20
2018-04-08T07:15:30.386Z,6.67
2018-04-08T07:25:33.586Z,8.77
2018-04-08T07:35:36.784Z,7.20
2018-04-08T07:45:39.955Z,7.33
2018-04-08T07:55:43.900Z,7.63
2018-04-08T08:05:47.094Z,8.70
2018-04-08T08:15:50.286Z,16.23
2018-04-08T08:25:54.267Z,12.53
2018-04-08T08:35:58.211Z,11.27
2018-04-08T08:46:02.164Z,9.17
2018-04-08T08:56:05.357Z,8.90
2018-04-08T09:06:08.534Z,8.10
2018-04-08T09:16:11.720Z,9.40
2018-04-08T09:26:14.911Z,8.20
2018-04-08T09:36:18.157Z,8.30
2018-04-08T09:46:21.412Z,8.60
2018-04-08T09:56:25.682Z,8.93
2018-04-08T10:06:28.868Z,7.77
2018-04-08T10:16:32.041Z,7.73
2018-04-08T10:26:35.221Z,7.50
2018-04-08T10:36:38.421Z,7.37
2018-04-08T10:46:41.598Z,7.10
2018-04-08T10:56:46.295Z,7.30
2018-04-08T11:06:50.234Z,7.37
2018-04-08T11:16:53.444Z,7.60
2018-04-08T11:26:57.572Z,7.50
2018-04-08T11:37:00.882Z,7.03
2018-04-08T11:47:04.070Z,7.10
2018-04-08T11:57:07.270Z,7.13
2018-04-08T12:07:10.457Z,7.43
2018-04-08T12:17:13.762Z,7.20
2018-04-08T12:27:17.758Z,7.10
2018-04-08T12:37:20.960Z,7.30
2018-04-08T12:47:24.149Z,6.67
2018-04-08T12:57:27.317Z,7.23
2018-04-08T13:07:30.496Z,6.90
2018-04-08T13:17:33.686Z,7.20
2018-04-08T13:27:36.883Z,7.47
2018-04-08T13:37:40.048Z,6.47
2018-04-08T13:47:43.229Z,6.77
2018-04-08T13:57:46.418Z,6.10
2018-04-08T14:07:50.461Z,5.93
2018-04-08T14:17:53.641Z,6.13
2018-04-08T14:27:56.813Z,6.30
2018-04-08T14:38:00.006Z,6.10
2018-04-08T14:48:03.961Z,6.07
2018-04-08T14:58:07.153Z,6.00
2018-04-08T15:08:10.335Z,5.83
2018-04-08T15:18:14.542Z,5.53
2018-04-08T15:28:17.745Z,5.53
2018-04-08T15:38:20.945Z,5.50
2018-04-08T15:48:24.127Z,6.13
2018-04-08T15:58:27.769Z,6.03
2018-04-08T16:08:31.024Z,5.70
2018-04-08T16:18:34.207Z,5.27
2018-04-08T16:28:37.380Z,5.20
2018-04-08T16:38:40.585Z,5.60
2018-04-08T16:48:43.757Z,5.47
2018-04-08T16:58:47.067Z,5.60
2018-04-08T17:08:51.318Z,5.97
2018-04-08T17:18:55.200Z,5.77
2018-04-08T17:28:59.371Z,4.90
2018-04-08T17:39:02.590Z,5.67
2018-04-08T17:49:06.646Z,5.00
2018-04-08T17:59:10.666Z,5.10
2018-04-08T18:09:13.847Z,4.83
2018-04-08T18:19:17.728Z,4.97
2018-04-08T18:29:20.997Z,4.90
2018-04-08T18:39:24.213Z,4.90
2018-04-08T18:49:30.138Z,4.60
2018-04-08T18:59:33.394Z,4.37
2018-04-08T19:09:36.785Z,4.73
2018-04-08T19:19:40.582Z,5.27
2018-04-08T19:29:43.751Z,4.70
2018-04-08T19:39:47.513Z,4.40
2018-04-08T19:49:51.603Z,4.67
2018-04-08T19:59:55.667Z,4.70
2018-04-08T20:09:58.985Z,4.80
2018-04-08T20:20:02.176Z,4.77
2018-04-08T20:30:06.158Z,4.53
2018-04-08T20:40:09.332Z,4.80
2018-04-08T20:50:12.517Z,4.40
2018-04-08T21:00:15.705Z,4.00
2018-04-08T21:10:18.921Z,4.30
2018-04-08T21:20:22.872Z,4.50
2018-04-08T21:30:26.832Z,4.30
2018-04-08T21:40:30.811Z,4.47
2018-04-08T21:50:34.921Z,4.57
2018-04-08T22:00:38.095Z,4.27
2018-04-08T22:10:42.034Z,4.33
2018-04-08T22:20:45.226Z,4.17
2018-04-08T22:30:48.425Z,4.40
2018-04-08T22:40:52.386Z,4.60
2018-04-08T22:50:55.556Z,4.13
2018-04-08T23:00:58.730Z,4.37
2018-04-08T23:11:01.921Z,3.93
2018-04-08T23:21:05.884Z,3.77
2018-04-08T23:31:09.822Z,4.20
2018-04-08T23:41:13.002Z,3.93
2018-04-08T23:51:16.943Z,4.20
